Time;durP1;ratioP1;P1;durP2;ratioP2;P2;SDS_P1;SDS_P2;PMS_P1;PMS_P2;Temp;Humidity;BMP_temperature;BMP_pressure;BME280_temperature;BME280_humidity;BME280_pressure;Samples;Min_cycle;Max_cycle;Signal;HPM_P1;HPM_P2
2021/12/30 00:00:39;;;;;;;27.15;8.90;;;;;;;15.14;65.07;100981.47;4912645;28;113268;-68
2021/12/30 00:03:08;;;;;;;24.52;9.02;;;;;;;15.14;65.12;100986.81;4912524;28;123732;-68
2021/12/30 00:05:35;;;;;;;29.58;9.55;;;;;;;15.14;65.18;100992.13;4915723;28;123861;-69
2021/12/30 00:08:03;;;;;;;27.58;9.70;;;;;;;15.14;65.14;101000.16;4916704;28;114205;-69
2021/12/30 00:10:30;;;;;;;28.27;9.13;;;;;;;15.12;65.06;101004.72;4933857;28;114064;-69
2021/12/30 00:12:57;;;;;;;23.98;8.80;;;;;;;15.12;65.35;101010.06;4932649;28;124543;-69
2021/12/30 00:15:25;;;;;;;25.58;8.85;;;;;;;15.12;65.16;101015.38;4932479;28;124295;-68
2021/12/30 00:17:53;;;;;;;27.58;8.48;;;;;;;15.12;65.35;101010.06;4934086;28;113972;-69
2021/12/30 00:20:20;;;;;;;27.10;8.35;;;;;;;15.13;65.36;101011.78;4934070;28;113747;-69
2021/12/30 00:22:47;;;;;;;26.85;7.70;;;;;;;15.14;65.12;101018.81;4934144;28;123900;-69
2021/12/30 00:25:15;;;;;;;22.40;7.68;;;;;;;15.15;65.26;101021.41;4934268;28;124677;-68
2021/12/30 00:27:42;;;;;;;27.52;7.18;;;;;;;15.16;65.20;101025.78;4917276;28;113593;-69
2021/12/30 00:30:11;;;;;;;20.80;7.35;;;;;;;15.17;65.42;101018.63;4933082;28;113878;-68
2021/12/30 00:32:38;;;;;;;23.13;6.30;;;;;;;15.19;65.29;101016.72;4932917;28;123778;-69
2021/12/30 00:35:10;;;;;;;20.30;6.30;;;;;;;15.19;65.47;101016.72;4916849;28;122850;-69
2021/12/30 00:37:37;;;;;;;25.15;5.97;;;;;;;15.22;65.31;101032.56;4934480;28;115118;-68
2021/12/30 00:40:06;;;;;;;20.55;5.60;;;;;;;15.22;65.25;101032.56;4917105;28;114770;-68
2021/12/30 00:42:33;;;;;;;19.20;4.82;;;;;;;15.23;65.48;101028.94;4934197;28;124003;-68
2021/12/30 00:45:01;;;;;;;26.20;5.18;;;;;;;15.25;65.42;101036.84;4916599;28;122728;-68
2021/12/30 00:47:28;;;;;;;18.95;5.20;;;;;;;15.24;65.37;101030.66;4934349;28;114305;-68
2021/12/30 00:49:56;;;;;;;19.60;4.60;;;;;;;15.23;65.36;101023.59;4916632;28;112973;-69
2021/12/30 00:52:26;;;;;;;23.27;5.10;;;;;;;15.23;65.32;101034.25;4934535;28;123410;-68
2021/12/30 00:54:53;;;;;;;21.67;5.20;;;;;;;15.22;65.19;101032.56;4933920;28;123731;-68
2021/12/30 00:57:20;;;;;;;21.63;5.38;;;;;;;15.22;65.48;101031.69;4945156;28;113583;-69
2021/12/30 00:59:47;;;;;;;16.52;4.90;;;;;;;15.22;65.17;101027.22;4935377;28;114827;-67
2021/12/30 01:02:14;;;;;;;25.83;5.40;;;;;;;15.21;65.35;101030.84;4934761;28;123988;-68
2021/12/30 01:04:41;;;;;;;26.45;5.18;;;;;;;15.23;65.31;101034.25;4901139;28;123068;-68
2021/12/30 01:07:09;;;;;;;24.63;6.07;;;;;;;15.23;65.39;101031.59;4935722;28;114701;-69
2021/12/30 01:09:36;;;;;;;25.90;6.03;;;;;;;15.24;65.46;101041.31;4917536;28;115028;-68
2021/12/30 01:12:04;;;;;;;24.35;5.55;;;;;;;15.27;65.53;101040.28;4956613;28;124209;-68
2021/12/30 01:14:35;;;;;;;20.15;5.25;;;;;;;15.27;65.59;101049.13;4956965;28;124401;-68
2021/12/30 01:17:16;;;;;;;25.58;5.72;;;;;;;15.29;65.52;101049.88;4955768;28;114735;-68
2021/12/30 01:19:44;;;;;;;21.98;5.53;;;;;;;15.31;65.54;101048.00;4953490;28;114920;-69
2021/12/30 01:22:14;;;;;;;25.80;5.97;;;;;;;15.32;65.11;101055.03;4937729;28;123389;-69
2021/12/30 01:24:43;;;;;;;20.13;5.72;;;;;;;15.34;65.71;101042.47;4933102;28;123959;-70
2021/12/30 01:27:10;;;;;;;18.55;5.25;;;;;;;15.37;65.58;101042.28;4931367;28;115133;-69
2021/12/30 01:29:37;;;;;;;15.18;5.15;;;;;;;15.40;65.48;101059.06;4926360;28;113877;-69
2021/12/30 01:32:05;;;;;;;24.42;5.60;;;;;;;15.42;65.52;101059.81;4950343;28;123945;-70
2021/12/30 01:34:33;;;;;;;21.63;5.53;;;;;;;15.44;65.44;101057.91;4951213;28;124123;-70
2021/12/30 01:37:02;;;;;;;20.00;5.53;;;;;;;15.45;65.37;101051.63;4956813;28;114144;-70
2021/12/30 01:39:36;;;;;;;22.23;6.07;;;;;;;15.46;65.56;101050.66;4951028;28;113754;-69
2021/12/30 01:42:06;;;;;;;27.25;5.80;;;;;;;15.47;65.40;101052.41;4949305;28;125398;-70
2021/12/30 01:44:33;;;;;;;17.48;4.47;;;;;;;15.49;65.51;101047.81;4950673;28;123157;-70
2021/12/30 01:47:02;;;;;;;23.30;4.93;;;;;;;15.49;65.44;101055.81;4952303;28;113365;-70
2021/12/30 01:49:29;;;;;;;20.35;4.95;;;;;;;15.52;65.52;101063.63;4951121;28;114699;-69
2021/12/30 01:51:57;;;;;;;18.45;5.05;;;;;;;15.51;65.59;101065.44;4949773;28;124020;-70
2021/12/30 01:54:25;;;;;;;22.45;4.20;;;;;;;15.52;65.53;101055.59;4918499;28;122857;-70
2021/12/30 01:56:53;;;;;;;16.25;4.40;;;;;;;15.52;65.77;101056.50;4951109;28;113134;-70
2021/12/30 01:59:23;;;;;;;20.38;4.22;;;;;;;15.53;65.50;101046.66;4952166;28;114003;-70
2021/12/30 02:01:56;;;;;;;17.92;3.70;;;;;;;15.54;65.96;101048.38;4951510;28;124028;-70
2021/12/30 02:04:28;;;;;;;23.83;3.80;;;;;;;15.55;65.69;101055.44;4951450;28;123960;-70
2021/12/30 02:06:57;;;;;;;20.30;3.90;;;;;;;15.57;65.68;101048.19;4952089;28;114394;-70
2021/12/30 02:09:24;;;;;;;23.02;4.60;;;;;;;15.57;65.89;101054.38;4951010;28;113748;-70
2021/12/30 02:11:55;;;;;;;18.45;4.15;;;;;;;15.60;65.90;101058.69;4951077;28;123747;-70
2021/12/30 02:14:22;;;;;;;17.13;4.25;;;;;;;15.62;65.90;101059.44;4932887;28;122480;-70
2021/12/30 02:16:49;;;;;;;19.27;4.60;;;;;;;15.64;66.01;101049.50;4933634;28;116025;-70
2021/12/30 02:19:16;;;;;;;13.60;4.53;;;;;;;15.68;65.87;101061.72;4951625;28;114789;-69
2021/12/30 02:21:43;;;;;;;19.65;4.72;;;;;;;15.71;65.98;101061.53;4950751;28;124662;-70
2021/12/30 02:24:10;;;;;;;16.67;4.70;;;;;;;15.74;65.96;101071.19;4951312;28;124060;-69
2021/12/30 02:26:37;;;;;;;24.42;4.65;;;;;;;15.76;66.12;101075.50;4950092;28;113345;-70
2021/12/30 02:29:04;;;;;;;15.23;4.50;;;;;;;15.79;65.94;101086.94;4948666;28;113959;-69
2021/12/30 02:31:32;;;;;;;16.20;4.72;;;;;;;15.82;65.99;101094.72;4950813;28;123954;-70
2021/12/30 02:33:59;;;;;;;16.48;4.93;;;;;;;15.85;66.14;101089.22;4951277;28;124653;-69
2021/12/30 02:36:32;;;;;;;17.10;4.70;;;;;;;15.88;66.30;101080.97;4951739;28;114356;-70
2021/12/30 02:39:05;;;;;;;18.38;4.28;;;;;;;15.90;66.07;101076.44;4950623;28;113881;-69
2021/12/30 02:41:34;;;;;;;21.00;5.10;;;;;;;15.93;66.02;101074.38;4949076;28;121859;-70
2021/12/30 02:44:06;;;;;;;16.98;5.00;;;;;;;15.94;65.99;101073.44;4950631;28;123428;-70
2021/12/30 02:46:35;;;;;;;19.42;5.00;;;;;;;15.98;66.08;101068.78;4948368;28;114609;-70
2021/12/30 02:49:03;;;;;;;20.02;5.40;;;;;;;15.99;66.16;101081.16;4949806;28;113022;-70
2021/12/30 02:51:32;;;;;;;18.55;5.25;;;;;;;16.02;66.19;101080.97;4951404;28;98791;-70
2021/12/30 02:53:59;;;;;;;18.75;5.45;;;;;;;16.01;66.05;101068.59;4950555;28;123758;-70
2021/12/30 02:56:27;;;;;;;16.52;5.40;;;;;;;16.04;66.08;101063.03;4950196;28;113302;-70
2021/12/30 02:58:54;;;;;;;17.52;5.05;;;;;;;16.05;66.22;101067.44;4951665;28;114366;-70
2021/12/30 03:01:27;;;;;;;16.50;5.40;;;;;;;16.06;66.16;101061.09;4949262;28;123320;-70
2021/12/30 03:04:00;;;;;;;23.00;5.40;;;;;;;16.07;65.94;101075.34;4950348;28;123892;-71
2021/12/30 03:06:28;;;;;;;24.88;5.85;;;;;;;16.10;66.10;101084.00;4950697;28;114695;-69
2021/12/30 03:08:56;;;;;;;19.73;5.47;;;;;;;16.12;66.23;101087.44;4953473;28;115086;-69
2021/12/30 03:11:25;;;;;;;18.63;4.82;;;;;;;16.14;66.26;101079.31;4953762;28;124926;-70
2021/12/30 03:13:54;;;;;;;17.80;4.90;;;;;;;16.15;66.21;101092.59;4952728;28;123110;-70
2021/12/30 03:16:28;;;;;;;19.42;5.10;;;;;;;16.18;66.12;101085.31;4936572;28;114670;-70
2021/12/30 03:18:57;;;;;;;15.32;4.82;;;;;;;16.20;66.08;101083.41;4951524;28;112929;-69
2021/12/30 03:21:25;;;;;;;15.02;4.55;;;;;;;16.20;66.08;101078.06;4952112;28;124461;-70
2021/12/30 03:23:54;;;;;;;16.70;3.95;;;;;;;16.21;66.08;101090.47;4950113;28;124951;-70
2021/12/30 03:26:21;;;;;;;17.55;4.18;;;;;;;16.21;66.22;101090.47;4949789;28;113787;-70
2021/12/30 03:28:49;;;;;;;17.17;4.25;;;;;;;16.22;66.17;101092.19;4950763;28;114553;-70
2021/12/30 03:31:19;;;;;;;14.18;4.10;;;;;;;16.23;66.44;101083.22;4947636;28;123016;-70
2021/12/30 03:33:49;;;;;;;14.55;4.18;;;;;;;16.22;66.20;101093.06;4950452;28;124482;-70
2021/12/30 03:36:17;;;;;;;13.18;3.85;;;;;;;16.24;66.19;101103.66;4949140;28;113153;-70
2021/12/30 03:38:47;;;;;;;14.82;3.63;;;;;;;16.23;66.22;101093.91;4949164;28;113022;-70
2021/12/30 03:41:17;;;;;;;12.65;4.20;;;;;;;16.22;66.18;101093.06;4948252;28;123555;-70
2021/12/30 03:43:45;;;;;;;14.75;4.05;;;;;;;16.22;66.16;101098.41;4950353;28;124379;-70
2021/12/30 03:46:12;;;;;;;13.75;3.85;;;;;;;16.25;66.32;101102.69;4952011;28;113030;-70
2021/12/30 03:48:43;;;;;;;10.52;3.50;;;;;;;16.26;66.38;101109.75;4933996;28;113219;-70
2021/12/30 03:51:20;;;;;;;10.70;3.50;;;;;;;16.26;66.33;101112.44;4929792;28;123960;-70
2021/12/30 03:53:49;;;;;;;11.38;3.47;;;;;;;16.25;66.52;101108.03;4913644;28;121798;-70
2021/12/30 03:56:19;;;;;;;7.50;3.10;;;;;;;16.26;66.45;101104.41;4913536;28;114445;-70
2021/12/30 03:58:47;;;;;;;11.38;3.15;;;;;;;16.28;66.47;101102.50;4931790;28;114802;-70
2021/12/30 04:01:17;;;;;;;7.65;3.28;;;;;;;16.29;66.42;101098.84;4930909;28;124311;-70
2021/12/30 04:03:45;;;;;;;6.18;2.72;;;;;;;16.28;66.49;101102.50;4934545;28;123567;-70
2021/12/30 04:06:13;;;;;;;8.27;2.60;;;;;;;16.31;66.48;101102.28;4929940;28;113850;-70
2021/12/30 04:08:40;;;;;;;5.03;2.30;;;;;;;16.30;66.48;101095.22;4930574;28;114433;-69
2021/12/30 04:11:07;;;;;;;8.35;2.75;;;;;;;16.34;66.62;101096.75;4930668;28;124784;-70
2021/12/30 04:13:35;;;;;;;5.30;2.50;;;;;;;16.35;66.64;101090.44;4928131;28;122905;-70
2021/12/30 04:16:03;;;;;;;6.93;2.33;;;;;;;16.37;66.77;101095.66;4930918;28;115003;-70
2021/12/30 04:18:31;;;;;;;7.60;2.63;;;;;;;16.38;66.42;101103.59;4930876;28;113982;-70
2021/12/30 04:20:58;;;;;;;4.90;2.40;;;;;;;16.40;66.61;101104.34;4929789;28;124625;-69
2021/12/30 04:23:25;;;;;;;5.50;2.60;;;;;;;16.40;66.71;101107.03;4913405;28;122391;-70
2021/12/30 04:25:52;;;;;;;7.45;2.75;;;;;;;16.41;66.69;101099.88;4939885;28;116267;-70
2021/12/30 04:28:19;;;;;;;6.60;2.70;;;;;;;16.41;66.70;101103.41;4933389;28;114099;-70
2021/12/30 04:30:46;;;;;;;6.28;2.53;;;;;;;16.42;66.65;101101.59;4932546;28;124104;-70
2021/12/30 04:33:14;;;;;;;4.63;2.20;;;;;;;16.42;66.72;101107.78;4950457;28;124155;-70
2021/12/30 04:35:41;;;;;;;4.90;2.33;;;;;;;16.42;66.66;101115.78;4950891;28;114299;-70
2021/12/30 04:38:08;;;;;;;7.38;2.40;;;;;;;16.43;66.59;101112.19;4951135;28;114364;-70
2021/12/30 04:40:35;;;;;;;4.03;2.13;;;;;;;16.45;66.66;101115.59;4950279;28;124290;-70
2021/12/30 04:43:02;;;;;;;6.22;2.47;;;;;;;16.45;66.67;101115.59;4949991;28;124685;-70
2021/12/30 04:45:29;;;;;;;4.10;2.13;;;;;;;16.45;66.30;101112.94;4932579;28;114284;-70
2021/12/30 04:47:57;;;;;;;3.67;2.08;;;;;;;16.46;66.72;101101.28;4950719;28;115476;-70
2021/12/30 04:50:25;;;;;;;4.72;2.40;;;;;;;16.46;66.61;101111.09;4932316;28;123292;-70
2021/12/30 04:52:52;;;;;;;5.20;2.50;;;;;;;16.47;66.69;101112.84;4952416;28;123636;-70
2021/12/30 04:55:19;;;;;;;3.97;2.30;;;;;;;16.46;66.67;101117.34;4952911;28;114095;-71
2021/12/30 04:57:46;;;;;;;4.38;2.30;;;;;;;16.46;66.85;101121.81;4935160;28;113003;-70
2021/12/30 05:00:14;;;;;;;5.72;2.70;;;;;;;16.45;66.86;101118.28;4952488;28;124142;-70
2021/12/30 05:03:07;;;;;;;6.20;3.40;;;;;;;16.46;67.05;101117.34;4952871;28;124016;-70
2021/12/30 05:05:32;;;;;;;6.13;3.58;;;;;;;16.47;67.02;101113.69;4953979;28;114875;-70
2021/12/30 05:07:59;;;;;;;6.40;3.63;;;;;;;16.49;67.11;101116.25;4935177;28;113142;-70
2021/12/30 05:10:26;;;;;;;6.55;4.00;;;;;;;16.50;67.13;101121.53;4933982;28;123239;-69
2021/12/30 05:12:53;;;;;;;7.20;4.28;;;;;;;16.52;67.16;101121.44;4951514;28;124086;-70
2021/12/30 05:15:20;;;;;;;8.32;5.00;;;;;;;16.53;67.58;101110.59;4951061;28;112837;-70
2021/12/30 05:17:48;;;;;;;9.70;5.25;;;;;;;16.55;67.05;101116.69;4935287;28;113860;-70
2021/12/30 05:20:15;;;;;;;10.27;6.10;;;;;;;16.58;67.28;101120.16;4934696;28;123946;-70
2021/12/30 05:22:43;;;;;;;11.23;6.30;;;;;;;16.60;67.37;101118.25;4951929;28;124482;-69
2021/12/30 05:25:11;;;;;;;9.18;6.20;;;;;;;16.61;67.08;101110.09;4952637;28;114252;-70
2021/12/30 05:27:39;;;;;;;13.18;7.88;;;;;;;16.65;67.26;101118.78;4952886;28;113661;-69
2021/12/30 05:30:09;;;;;;;11.57;7.70;;;;;;;16.67;67.29;101116.84;4951417;28;124740;-70
2021/12/30 05:32:36;;;;;;;14.32;8.52;;;;;;;16.69;67.46;101120.31;4951833;28;124750;-70
2021/12/30 05:35:06;;;;;;;13.75;8.48;;;;;;;16.71;67.40;101116.56;4934012;28;115119;-70
2021/12/30 05:37:33;;;;;;;15.55;9.32;;;;;;;16.74;67.27;101116.38;4952176;28;114500;-70
2021/12/30 05:40:00;;;;;;;14.50;9.20;;;;;;;16.78;67.44;101119.66;4933964;28;124013;-70
2021/12/30 05:42:27;;;;;;;14.88;9.10;;;;;;;16.79;67.15;101124.06;4951771;28;123680;-69
2021/12/30 05:44:55;;;;;;;14.55;8.95;;;;;;;16.82;67.17;101123.91;4934497;28;114369;-70
2021/12/30 05:47:22;;;;;;;16.15;9.80;;;;;;;16.85;67.42;101138.88;4934721;28;114029;-70
2021/12/30 05:49:50;;;;;;;13.68;9.35;;;;;;;16.86;67.50;101133.44;4951241;28;124054;-69
2021/12/30 05:52:17;;;;;;;14.88;10.32;;;;;;;16.89;67.26;101141.25;4952017;28;123562;-70
2021/12/30 05:54:44;;;;;;;15.45;9.75;;;;;;;16.90;67.38;101140.31;4951789;28;114141;-70
2021/12/30 05:57:11;;;;;;;17.83;10.50;;;;;;;16.92;67.32;101143.72;4952337;28;114571;-69
2021/12/30 05:59:39;;;;;;;16.45;10.65;;;;;;;16.93;67.66;101137.44;4950870;28;124548;-70
2021/12/30 06:02:06;;;;;;;17.42;11.02;;;;;;;16.97;67.25;101147.91;4932134;28;122663;-70
2021/12/30 06:04:33;;;;;;;18.17;11.43;;;;;;;16.98;67.47;101145.13;4951503;28;114696;-69
2021/12/30 06:07:00;;;;;;;17.38;11.25;;;;;;;17.00;67.21;101147.72;4951899;28;114336;-70
2021/12/30 06:09:28;;;;;;;17.88;12.20;;;;;;;17.01;67.29;101149.41;4934263;28;123340;-69
2021/12/30 06:11:55;;;;;;;17.75;12.02;;;;;;;17.03;67.37;101147.53;4951246;28;124104;-69
2021/12/30 06:14:22;;;;;;;18.30;12.45;;;;;;;17.05;67.44;101134.88;4951274;28;114202;-70
2021/12/30 06:16:49;;;;;;;16.17;11.43;;;;;;;17.06;67.37;101132.09;4950599;28;113386;-69
2021/12/30 06:19:16;;;;;;;16.02;11.00;;;;;;;17.08;67.46;101140.00;4951468;28;124076;-70
2021/12/30 06:21:43;;;;;;;16.08;10.90;;;;;;;17.08;67.34;101140.91;4951027;28;123785;-70
2021/12/30 06:24:11;;;;;;;16.15;11.27;;;;;;;17.09;67.34;101145.25;4932997;28;114497;-70
2021/12/30 06:26:38;;;;;;;15.15;10.77;;;;;;;17.12;67.29;101146.88;4951663;28;115229;-69
2021/12/30 06:29:06;;;;;;;13.50;10.32;;;;;;;17.13;67.27;101144.09;4949854;28;123928;-69
2021/12/30 06:31:33;;;;;;;12.00;9.43;;;;;;;17.14;67.09;101150.31;4932687;28;122867;-67
2021/12/30 06:34:00;;;;;;;10.85;8.10;;;;;;;17.16;67.31;101153.75;4951196;28;115172;-70
2021/12/30 06:36:28;;;;;;;9.20;6.88;;;;;;;17.16;67.15;101159.09;4934268;28;113294;-70
2021/12/30 06:38:55;;;;;;;8.48;6.45;;;;;;;17.18;67.12;101150.94;4951000;28;123929;-70
2021/12/30 06:41:22;;;;;;;8.05;5.47;;;;;;;17.17;67.19;101144.75;4951079;28;123478;-69
2021/12/30 06:43:49;;;;;;;7.55;5.70;;;;;;;17.18;67.15;101146.47;4933647;28;114040;-69
2021/12/30 06:46:19;;;;;;;7.30;5.65;;;;;;;17.20;67.03;101155.25;4949831;28;113171;-70
2021/12/30 06:48:47;;;;;;;5.80;4.70;;;;;;;17.20;66.96;101157.94;4947613;28;123777;-69
2021/12/30 06:51:17;;;;;;;4.93;4.00;;;;;;;17.21;66.83;101162.31;4950328;28;124221;-69
2021/12/30 06:53:46;;;;;;;5.43;4.07;;;;;;;17.22;66.87;101164.03;4951467;28;114214;-69
2021/12/30 06:56:13;;;;;;;4.40;3.58;;;;;;;17.22;66.79;101163.19;4933587;28;113923;-69
2021/12/30 06:58:41;;;;;;;5.32;3.63;;;;;;;17.22;66.85;101169.38;4933330;28;124014;-69
2021/12/30 07:01:08;;;;;;;6.22;4.57;;;;;;;17.24;66.84;101178.16;4932484;28;124195;-69
2021/12/30 07:03:36;;;;;;;6.13;4.65;;;;;;;17.25;66.63;101179.91;4950999;28;114191;-70
2021/12/30 07:06:03;;;;;;;7.30;4.82;;;;;;;17.25;66.69;101169.19;4951413;28;113667;-69
2021/12/30 07:08:30;;;;;;;6.80;5.50;;;;;;;17.25;66.43;101187.94;4933159;28;123738;-70
2021/12/30 07:10:57;;;;;;;8.23;5.90;;;;;;;17.26;66.42;101197.66;4950129;28;123661;-70
2021/12/30 07:13:24;;;;;;;8.27;6.05;;;;;;;17.26;66.41;101203.00;4949637;28;114733;-70
2021/12/30 07:15:51;;;;;;;9.45;6.43;;;;;;;17.27;66.38;101199.38;4949531;28;115567;-70
2021/12/30 07:18:18;;;;;;;8.90;6.18;;;;;;;17.29;66.53;101207.28;4932940;28;124011;-70
2021/12/30 07:20:45;;;;;;;9.20;6.40;;;;;;;17.29;66.65;101208.16;4950309;28;123874;-70
2021/12/30 07:23:13;;;;;;;9.77;6.60;;;;;;;17.30;66.31;101215.22;4950702;28;114739;-70
2021/12/30 07:25:40;;;;;;;9.43;6.50;;;;;;;17.32;66.38;101218.66;4933454;28;114540;-70
2021/12/30 07:28:07;;;;;;;9.25;6.50;;;;;;;17.32;66.44;101217.81;4933014;28;124181;-70
2021/12/30 07:30:34;;;;;;;8.90;6.90;;;;;;;17.34;66.40;101220.38;4933038;28;124671;-70
2021/12/30 07:33:06;;;;;;;10.57;7.15;;;;;;;17.34;66.41;101220.38;4950346;28;114201;-70
2021/12/30 07:35:35;;;;;;;9.20;6.55;;;;;;;17.34;66.41;101225.75;4948365;28;113589;-70
2021/12/30 07:38:03;;;;;;;10.10;6.95;;;;;;;17.35;66.26;101243.50;4932421;28;124505;-70
2021/12/30 07:40:31;;;;;;;8.90;6.45;;;;;;;17.36;66.32;101237.19;4950056;28;125136;-70
2021/12/30 07:42:59;;;;;;;8.73;6.22;;;;;;;17.37;66.31;101241.59;4933094;28;114460;-70
2021/12/30 07:45:26;;;;;;;9.02;6.40;;;;;;;17.37;66.17;101241.59;4950509;28;114249;-70
2021/12/30 07:47:54;;;;;;;9.43;6.47;;;;;;;17.38;66.18;101251.34;4932724;28;124638;-70
2021/12/30 07:50:22;;;;;;;8.88;6.10;;;;;;;17.38;66.18;101243.31;4949875;28;123818;-70
2021/12/30 07:52:50;;;;;;;8.50;6.38;;;;;;;17.38;66.10;101238.81;4948298;28;114308;-70
2021/12/30 07:55:17;;;;;;;9.95;6.63;;;;;;;17.41;66.22;101248.47;4950679;28;114616;-70
2021/12/30 07:57:45;;;;;;;10.13;6.85;;;;;;;17.41;65.96;101248.47;4949301;28;125423;-70
2021/12/30 08:00:15;;;;;;;9.60;6.75;;;;;;;17.42;66.10;101250.16;4948698;28;124007;-70
2021/12/30 08:02:44;;;;;;;10.20;7.70;;;;;;;17.43;65.95;101251.91;4947452;28;114148;-70
2021/12/30 08:05:16;;;;;;;10.63;7.55;;;;;;;17.44;65.97;101253.59;4949526;28;114903;-70
2021/12/30 08:07:48;;;;;;;10.60;7.18;;;;;;;17.45;66.00;101260.69;4947965;28;124324;-68
2021/12/30 08:10:19;;;;;;;9.85;7.30;;;;;;;17.45;66.10;101260.69;4947860;28;124830;-69
2021/12/30 08:12:47;;;;;;;11.20;7.72;;;;;;;17.47;66.00;101253.41;4931975;28;113925;-71
2021/12/30 08:15:16;;;;;;;11.68;7.68;;;;;;;17.48;66.01;101265.84;4950240;28;114304;-69
2021/12/30 08:17:44;;;;;;;11.57;8.40;;;;;;;17.50;66.31;101274.63;4949577;28;123751;-70
2021/12/30 08:20:13;;;;;;;10.75;7.93;;;;;;;17.52;65.88;101283.41;4948627;28;123942;-70
2021/12/30 08:22:40;;;;;;;10.55;7.78;;;;;;;17.53;65.82;101274.41;4949768;28;114987;-70
2021/12/30 08:25:09;;;;;;;11.02;8.30;;;;;;;17.55;65.80;101280.50;4950497;28;115624;-70
2021/12/30 08:27:37;;;;;;;12.07;8.40;;;;;;;17.55;65.70;101277.84;4952765;28;124265;-70
2021/12/30 08:30:09;;;;;;;11.65;8.73;;;;;;;17.56;65.90;101268.84;4953170;28;123758;-70
2021/12/30 08:32:36;;;;;;;12.02;8.82;;;;;;;17.58;65.69;101277.63;4950208;28;114356;-70
2021/12/30 08:35:04;;;;;;;11.13;8.82;;;;;;;17.58;65.83;101280.31;4953187;28;114070;-70
2021/12/30 08:37:33;;;;;;;12.32;8.73;;;;;;;17.59;65.68;101284.69;4951767;28;125180;-70
2021/12/30 08:40:02;;;;;;;12.15;8.38;;;;;;;17.61;65.68;101288.16;4935176;28;124586;-70
2021/12/30 08:42:30;;;;;;;11.55;7.90;;;;;;;17.63;65.65;101286.22;4935315;28;112698;-69
2021/12/30 08:44:59;;;;;;;9.77;7.22;;;;;;;17.64;65.73;101282.56;4936542;28;112994;-69
2021/12/30 08:47:28;;;;;;;8.93;6.63;;;;;;;17.64;65.53;101282.56;4935370;28;123310;-70
2021/12/30 08:49:56;;;;;;;9.63;6.50;;;;;;;17.64;65.46;101282.56;4952419;28;124181;-70
2021/12/30 08:52:25;;;;;;;8.38;5.82;;;;;;;17.65;65.64;101283.41;4934522;28;115094;-70
2021/12/30 08:54:55;;;;;;;7.32;5.50;;;;;;;17.65;65.54;101278.94;4953233;28;114331;-70
2021/12/30 08:57:23;;;;;;;9.10;5.93;;;;;;;17.66;65.65;101286.00;4952986;28;124359;-70
2021/12/30 08:59:50;;;;;;;7.60;5.63;;;;;;;17.66;65.50;101286.00;4934885;28;123629;-70
2021/12/30 09:02:18;;;;;;;6.55;4.72;;;;;;;17.68;65.54;101297.47;4951194;28;113393;-70
2021/12/30 09:04:46;;;;;;;7.18;4.90;;;;;;;17.68;65.42;101300.16;4935292;28;114525;-70
2021/12/30 09:07:16;;;;;;;7.45;4.80;;;;;;;17.70;65.27;101306.25;4950465;28;123187;-70
2021/12/30 09:09:44;;;;;;;6.72;4.18;;;;;;;17.70;65.38;101308.94;4952700;28;124806;-70
2021/12/30 09:12:16;;;;;;;6.35;3.97;;;;;;;17.73;65.57;101323.13;4951741;28;114620;-69
2021/12/30 09:14:43;;;;;;;6.15;3.67;;;;;;;17.73;65.37;101333.84;4952815;28;113868;-69
2021/12/30 09:17:10;;;;;;;5.47;3.55;;;;;;;17.75;65.44;101326.53;4951758;28;123061;-69
2021/12/30 09:19:37;;;;;;;4.65;3.40;;;;;;;17.77;65.41;101335.34;4951992;28;123774;-69
2021/12/30 09:22:04;;;;;;;4.80;3.67;;;;;;;17.78;65.30;101331.69;4934839;28;113239;-71
2021/12/30 09:24:31;;;;;;;4.32;3.20;;;;;;;17.79;65.38;101333.41;4952391;28;114040;-71
2021/12/30 09:27:00;;;;;;;5.35;3.45;;;;;;;17.81;65.16;101326.13;4952642;28;125895;-68
2021/12/30 09:29:27;;;;;;;6.55;3.40;;;;;;;17.84;65.21;101331.28;4935026;28;123933;-68
2021/12/30 09:31:54;;;;;;;6.15;3.17;;;;;;;17.85;65.16;101338.38;4934169;28;113431;-68
2021/12/30 09:34:21;;;;;;;6.03;3.60;;;;;;;17.87;65.07;101336.44;4952586;28;114152;-68
2021/12/30 09:36:48;;;;;;;6.15;3.63;;;;;;;17.88;65.15;101332.81;4933706;28;123170;-68
2021/12/30 09:39:16;;;;;;;6.90;3.45;;;;;;;17.90;64.99;101341.63;4952091;28;124759;-71
2021/12/30 09:41:46;;;;;;;5.85;3.53;;;;;;;17.91;65.14;101335.28;4951585;28;115168;-71
2021/12/30 09:44:17;;;;;;;5.05;3.47;;;;;;;17.94;65.05;101345.78;4933944;28;114017;-71
2021/12/30 09:46:44;;;;;;;6.97;3.80;;;;;;;17.96;65.14;101348.38;4949187;28;124664;-70
2021/12/30 09:49:17;;;;;;;7.03;3.67;;;;;;;17.98;64.88;101352.66;4952010;28;124005;-70
2021/12/30 09:51:45;;;;;;;6.00;3.70;;;;;;;18.00;64.76;101358.75;4949160;28;114766;-69
2021/12/30 09:54:13;;;;;;;5.43;3.50;;;;;;;18.02;64.78;101351.47;4935059;28;113220;-70
2021/12/30 09:56:41;;;;;;;8.02;3.35;;;;;;;18.04;64.89;101357.59;4950561;28;124075;-69
2021/12/30 09:59:11;;;;;;;5.38;3.05;;;;;;;18.06;64.72;101374.47;4952735;28;123901;-68
2021/12/30 10:01:40;;;;;;;6.80;3.30;;;;;;;18.08;64.66;101371.66;4953491;28;114176;-69
2021/12/30 10:04:09;;;;;;;6.07;2.90;;;;;;;18.09;64.50;101368.88;4958733;28;115766;-69
2021/12/30 10:06:45;;;;;;;5.40;2.90;;;;;;;18.09;64.44;101363.50;4942243;28;122750;-69
2021/12/30 10:09:15;;;;;;;6.78;2.70;;;;;;;18.13;64.14;101363.31;4957370;28;123793;-69
2021/12/30 10:11:51;;;;;;;7.68;2.90;;;;;;;18.15;64.16;101372.09;4940943;28;112360;-69
2021/12/30 10:14:29;;;;;;;6.05;2.90;;;;;;;18.19;64.18;101357.50;4965142;28;113296;-69
2021/12/30 10:17:22;;;;;;;4.60;2.60;;;;;;;18.20;64.28;101356.56;4949635;28;125201;-69
2021/12/30 10:19:51;;;;;;;5.45;3.13;;;;;;;18.22;64.12;101346.59;4935134;28;123221;-70
2021/12/30 10:22:21;;;;;;;5.78;2.78;;;;;;;18.25;64.14;101351.72;4952696;28;114378;-69
2021/12/30 10:24:49;;;;;;;5.18;2.47;;;;;;;18.29;63.91;101347.88;4936927;28;113006;-69
2021/12/30 10:27:25;;;;;;;6.47;2.70;;;;;;;18.32;63.93;101358.38;4934183;28;123724;-69
2021/12/30 10:29:53;;;;;;;4.60;2.60;;;;;;;18.36;63.70;101359.88;4951665;28;124135;-69
2021/12/30 10:32:24;;;;;;;6.97;2.63;;;;;;;18.39;63.89;101365.03;4951073;28;115499;-69
2021/12/30 10:35:14;;;;;;;8.18;2.70;;;;;;;18.41;63.61;101371.16;4934254;28;113399;-69
2021/12/30 10:37:46;;;;;;;6.00;2.78;;;;;;;18.44;63.47;101373.63;4930945;28;123579;-68
2021/12/30 10:40:29;;;;;;;7.15;2.80;;;;;;;18.45;63.46;101375.31;4933153;28;123717;-70
2021/12/30 10:43:31;;;;;;;7.38;2.55;;;;;;;18.45;63.45;101372.66;4932090;28;115002;-69
2021/12/30 10:46:12;;;;;;;8.32;2.72;;;;;;;18.46;63.29;101371.69;4952533;28;113797;-69
2021/12/30 10:48:51;;;;;;;7.00;3.00;;;;;;;18.46;63.32;101377.06;4949676;28;122657;-69
2021/12/30 10:51:38;;;;;;;7.88;3.05;;;;;;;18.47;63.23;101376.06;4932480;28;123517;-69
2021/12/30 10:54:14;;;;;;;6.03;2.78;;;;;;;18.46;62.94;101371.69;4934437;28;113598;-69
2021/12/30 10:56:47;;;;;;;7.15;2.13;;;;;;;18.46;62.75;101381.56;4948682;28;113792;-69
2021/12/30 10:59:21;;;;;;;5.85;2.60;;;;;;;18.44;62.89;101368.25;4950855;28;124233;-69
2021/12/30 11:01:55;;;;;;;4.50;2.20;;;;;;;18.45;62.91;101369.13;4948202;28;124650;-69
2021/12/30 11:04:32;;;;;;;5.43;1.98;;;;;;;18.43;62.70;101365.69;4933697;28;113904;-69
2021/12/30 11:06:59;;;;;;;5.75;2.60;;;;;;;18.43;62.78;101365.69;4946958;28;114001;-69
2021/12/30 11:09:26;;;;;;;6.03;2.60;;;;;;;18.42;62.84;101380.94;4950790;28;124748;-70
2021/12/30 11:11:59;;;;;;;6.68;2.85;;;;;;;18.43;62.67;101374.56;4932895;28;124023;-69
2021/12/30 11:14:29;;;;;;;6.28;2.50;;;;;;;18.45;62.74;101371.78;4950594;28;114179;-69
2021/12/30 11:17:04;;;;;;;5.18;2.33;;;;;;;18.43;62.59;101374.56;4948408;28;113921;-69
2021/12/30 11:19:40;;;;;;;9.07;2.83;;;;;;;18.44;62.67;101379.00;4947847;28;124468;-70